Time;durP1;ratioP1;P1;durP2;ratioP2;P2;SDS_P1;SDS_P2;PMS_P1;PMS_P2;Temp;Humidity;BMP_temperature;BMP_pressure;BME280_temperature;BME280_humidity;BME280_pressure;Samples;Min_cycle;Max_cycle;Signal;HPM_P1;HPM_P2
2023/02/05 00:01:32;;;;;;;33.83;15.60;;;;;;;;;;5023912;28;20707;-67
2023/02/05 00:03:57;;;;;;;32.73;16.47;;;;;;;;;;5036770;28;20210;-66
2023/02/05 00:06:23;;;;;;;30.60;16.10;;;;;;;;;;5038670;28;20209;-67
2023/02/05 00:08:48;;;;;;;30.60;14.43;;;;;;;;;;5041050;28;20649;-67
2023/02/05 00:11:14;;;;;;;30.03;16.00;;;;;;;;;;5043971;28;20224;-67
2023/02/05 00:13:41;;;;;;;29.20;15.33;;;;;;;;;;5040807;28;20255;-67
2023/02/05 00:16:13;;;;;;;31.13;15.80;;;;;;;;;;5032193;28;20207;-67
2023/02/05 00:18:38;;;;;;;27.90;15.70;;;;;;;;;;5040446;28;20281;-67
2023/02/05 00:21:05;;;;;;;29.43;14.97;;;;;;;;;;5032047;28;20293;-67
2023/02/05 00:23:30;;;;;;;28.67;15.33;;;;;;;;;;5029074;28;20211;-67
2023/02/05 00:25:56;;;;;;;26.47;14.57;;;;;;;;;;5030795;28;20241;-67
2023/02/05 00:28:21;;;;;;;28.27;14.17;;;;;;;;;;5022195;28;20196;-67
2023/02/05 00:30:46;;;;;;;32.87;14.97;;;;;;;;;;5030943;28;20255;-67
2023/02/05 00:33:12;;;;;;;27.97;14.40;;;;;;;;;;5021096;28;20230;-67
2023/02/05 00:35:37;;;;;;;34.93;14.60;;;;;;;;;;5021448;28;20190;-67
2023/02/05 00:38:02;;;;;;;30.27;14.47;;;;;;;;;;5035423;28;20212;-65
2023/02/05 00:40:28;;;;;;;30.90;14.20;;;;;;;;;;5041099;28;20213;-66
2023/02/05 00:42:53;;;;;;;31.13;13.30;;;;;;;;;;5038531;28;20554;-66
2023/02/05 00:45:19;;;;;;;29.50;13.43;;;;;;;;;;5026214;28;20542;-66
2023/02/05 00:47:44;;;;;;;33.23;13.87;;;;;;;;;;5024223;28;20241;-66
2023/02/05 00:50:10;;;;;;;32.43;13.50;;;;;;;;;;5018486;28;20197;-66
2023/02/05 00:52:35;;;;;;;31.87;13.30;;;;;;;;;;5041087;28;20182;-68
2023/02/05 00:55:00;;;;;;;24.80;13.10;;;;;;;;;;5029434;28;20283;-66
2023/02/05 00:57:26;;;;;;;32.83;13.00;;;;;;;;;;5032756;28;20560;-66
2023/02/05 00:59:51;;;;;;;29.70;13.03;;;;;;;;;;5032480;28;20582;-66
2023/02/05 01:02:22;;;;;;;35.13;13.63;;;;;;;;;;5032979;28;20312;-66
2023/02/05 01:04:51;;;;;;;33.57;13.13;;;;;;;;;;5022203;28;20193;-66
2023/02/05 01:07:18;;;;;;;35.07;12.30;;;;;;;;;;5027958;28;20588;-66
2023/02/05 01:09:43;;;;;;;32.60;13.03;;;;;;;;;;5031444;28;20239;-66
2023/02/05 01:12:09;;;;;;;27.60;11.63;;;;;;;;;;5033997;28;20264;-66
2023/02/05 01:14:34;;;;;;;38.50;12.20;;;;;;;;;;5027259;28;20523;-67
2023/02/05 01:17:00;;;;;;;30.07;11.60;;;;;;;;;;5031344;28;20194;-67
2023/02/05 01:19:25;;;;;;;30.40;12.73;;;;;;;;;;5030560;28;20680;-67
2023/02/05 01:21:50;;;;;;;28.03;11.10;;;;;;;;;;5027731;28;20209;-66
2023/02/05 01:24:16;;;;;;;32.57;12.30;;;;;;;;;;5034446;28;20251;-67
2023/02/05 01:26:41;;;;;;;34.10;11.03;;;;;;;;;;5018613;28;20199;-66
2023/02/05 01:29:07;;;;;;;28.40;11.50;;;;;;;;;;5025343;28;20282;-66
2023/02/05 01:31:34;;;;;;;33.67;11.63;;;;;;;;;;5023020;28;20190;-67
2023/02/05 01:34:00;;;;;;;25.97;11.50;;;;;;;;;;5025843;28;20288;-67
2023/02/05 01:36:25;;;;;;;30.10;11.27;;;;;;;;;;5031765;28;20193;-66
2023/02/05 01:38:53;;;;;;;31.50;11.53;;;;;;;;;;5047646;28;20206;-66
2023/02/05 01:41:18;;;;;;;30.67;12.97;;;;;;;;;;5044217;28;20194;-66
2023/02/05 01:44:04;;;;;;;33.83;12.17;;;;;;;;;;5038179;28;20212;-68
2023/02/05 01:46:30;;;;;;;29.43;10.67;;;;;;;;;;5030934;28;20367;-66
2023/02/05 01:48:57;;;;;;;27.17;10.43;;;;;;;;;;5035269;28;20311;-66
2023/02/05 01:51:25;;;;;;;30.77;10.93;;;;;;;;;;5033971;28;20281;-67
2023/02/05 01:53:51;;;;;;;29.33;11.07;;;;;;;;;;5037533;28;20668;-67
2023/02/05 01:56:21;;;;;;;33.27;10.70;;;;;;;;;;5039747;28;20217;-67
2023/02/05 01:58:57;;;;;;;28.20;11.60;;;;;;;;;;5029340;28;20178;-67
2023/02/05 02:01:24;;;;;;;27.53;10.10;;;;;;;;;;5020939;28;20209;-67
2023/02/05 02:03:52;;;;;;;31.60;12.53;;;;;;;;;;5039703;28;20647;-66
2023/02/05 02:06:17;;;;;;;28.90;11.80;;;;;;;;;;5034577;28;20270;-66
2023/02/05 02:08:43;;;;;;;31.40;12.57;;;;;;;;;;5038737;28;20253;-66
2023/02/05 02:11:12;;;;;;;22.47;10.17;;;;;;;;;;5040340;28;20186;-66
2023/02/05 02:13:38;;;;;;;29.07;11.63;;;;;;;;;;5039276;28;20246;-67
2023/02/05 02:16:05;;;;;;;35.33;12.43;;;;;;;;;;5043661;28;20203;-66
2023/02/05 02:18:33;;;;;;;34.07;12.73;;;;;;;;;;5034105;28;20267;-66
2023/02/05 02:21:38;;;;;;;34.43;12.63;;;;;;;;;;5028466;28;20189;-66
2023/02/05 02:24:19;;;;;;;38.37;12.07;;;;;;;;;;5030052;28;20197;-66
2023/02/05 02:27:07;;;;;;;23.42;11.32;;;;;;;;;;5041218;28;20436;-66
2023/02/05 02:29:40;;;;;;;31.50;12.20;;;;;;;;;;5025443;28;20194;-66
2023/02/05 02:32:22;;;;;;;28.23;11.47;;;;;;;;;;5028166;28;20680;-67
2023/02/05 02:34:54;;;;;;;28.47;11.57;;;;;;;;;;5034542;28;20190;-66
2023/02/05 02:37:24;;;;;;;34.17;11.70;;;;;;;;;;5038534;28;20198;-66
2023/02/05 02:39:57;;;;;;;30.60;11.87;;;;;;;;;;5023639;28;20220;-67
2023/02/05 02:42:32;;;;;;;24.87;11.77;;;;;;;;;;5021650;28;20755;-67
2023/02/05 02:45:06;;;;;;;31.43;12.60;;;;;;;;;;5023962;28;20212;-66
2023/02/05 02:47:36;;;;;;;31.97;11.40;;;;;;;;;;5033748;28;20193;-72
2023/02/05 02:50:23;;;;;;;30.93;12.20;;;;;;;;;;5021036;28;20571;-72
2023/02/05 02:52:51;;;;;;;40.90;12.33;;;;;;;;;;5016306;28;20247;-69
2023/02/05 02:55:18;;;;;;;37.50;12.77;;;;;;;;;;5029594;28;20240;-67
2023/02/05 02:57:47;;;;;;;39.27;13.30;;;;;;;;;;5027342;28;20204;-68
2023/02/05 03:00:17;;;;;;;44.43;13.83;;;;;;;;;;5017449;28;20221;-70
2023/02/05 03:02:45;;;;;;;40.73;13.87;;;;;;;;;;5032227;28;20691;-68
2023/02/05 03:05:14;;;;;;;37.13;13.57;;;;;;;;;;5033278;28;20189;-68
2023/02/05 03:08:02;;;;;;;36.80;13.27;;;;;;;;;;5039847;28;20194;-68
2023/02/05 03:10:42;;;;;;;54.37;15.10;;;;;;;;;;5018547;28;20190;-68
2023/02/05 03:13:11;;;;;;;50.07;16.33;;;;;;;;;;5027082;28;20220;-67
2023/02/05 03:15:42;;;;;;;55.13;16.60;;;;;;;;;;5020677;28;20195;-68
2023/02/05 03:18:08;;;;;;;46.47;15.23;;;;;;;;;;5021483;28;20646;-71
2023/02/05 03:21:09;;;;;;;47.70;17.67;;;;;;;;;;5023415;28;20198;-73
2023/02/05 03:23:34;;;;;;;45.43;15.87;;;;;;;;;;5018283;28;20385;-70
2023/02/05 03:25:59;;;;;;;38.93;15.37;;;;;;;;;;5023628;28;20575;-68
2023/02/05 03:28:25;;;;;;;44.40;15.50;;;;;;;;;;5022865;28;20187;-68
2023/02/05 03:30:50;;;;;;;48.37;16.17;;;;;;;;;;5025441;28;20190;-69
2023/02/05 03:33:37;;;;;;;47.47;16.30;;;;;;;;;;5025465;28;20657;-68
2023/02/05 03:36:14;;;;;;;56.57;16.20;;;;;;;;;;5029051;28;20223;-68
2023/02/05 03:39:02;;;;;;;39.50;16.67;;;;;;;;;;5027277;28;20194;-68
2023/02/05 03:41:57;;;;;;;45.43;17.00;;;;;;;;;;5023941;28;20198;-68
2023/02/05 03:45:03;;;;;;;49.87;17.17;;;;;;;;;;5028336;28;20739;-68
2023/02/05 03:47:39;;;;;;;57.33;18.97;;;;;;;;;;5027140;28;21404;-68
2023/02/05 03:50:19;;;;;;;58.60;20.03;;;;;;;;;;5034266;28;20201;-68
2023/02/05 03:52:50;;;;;;;52.93;20.40;;;;;;;;;;5039321;28;20696;-68
2023/02/05 03:55:23;;;;;;;59.27;20.10;;;;;;;;;;5033837;28;20194;-68
2023/02/05 03:58:03;;;;;;;53.33;20.10;;;;;;;;;;5038336;28;20222;-68
2023/02/05 04:00:30;;;;;;;60.63;20.37;;;;;;;;;;5031976;28;20696;-68
2023/02/05 04:02:56;;;;;;;58.47;21.43;;;;;;;;;;5026723;28;20213;-68
2023/02/05 04:05:21;;;;;;;57.07;21.73;;;;;;;;;;5014295;28;20681;-68
2023/02/05 04:07:48;;;;;;;56.27;22.50;;;;;;;;;;5017152;28;20208;-68
2023/02/05 04:10:14;;;;;;;69.87;23.80;;;;;;;;;;5019295;28;20186;-69
2023/02/05 04:12:39;;;;;;;68.47;24.13;;;;;;;;;;5019784;28;20174;-69
2023/02/05 04:15:07;;;;;;;63.10;23.63;;;;;;;;;;5025650;28;20235;-69
2023/02/05 04:17:33;;;;;;;64.67;23.77;;;;;;;;;;5023950;28;20244;-69
2023/02/05 04:19:58;;;;;;;71.80;26.10;;;;;;;;;;5024719;28;20832;-69
2023/02/05 04:22:24;;;;;;;67.27;24.70;;;;;;;;;;5018545;28;20574;-69
2023/02/05 04:24:49;;;;;;;71.57;25.07;;;;;;;;;;5014876;28;20215;-69
2023/02/05 04:27:14;;;;;;;70.70;25.27;;;;;;;;;;5027688;28;20533;-69
2023/02/05 04:29:40;;;;;;;69.87;26.23;;;;;;;;;;5019696;28;20195;-69
2023/02/05 04:32:05;;;;;;;63.13;24.93;;;;;;;;;;5017272;28;20659;-69
2023/02/05 04:34:30;;;;;;;59.30;24.13;;;;;;;;;;5023000;28;20198;-68
2023/02/05 04:36:56;;;;;;;66.90;24.70;;;;;;;;;;5039692;28;20289;-67
2023/02/05 04:39:21;;;;;;;65.50;25.23;;;;;;;;;;5028860;28;20202;-68
2023/02/05 04:41:47;;;;;;;59.00;25.13;;;;;;;;;;5028378;28;20522;-68
2023/02/05 04:44:12;;;;;;;69.23;24.63;;;;;;;;;;5041181;28;20276;-68
2023/02/05 04:46:37;;;;;;;70.13;26.57;;;;;;;;;;5036361;28;20201;-69
2023/02/05 04:49:03;;;;;;;65.10;26.05;;;;;;;;;;5033105;28;20905;-69
2023/02/05 04:51:28;;;;;;;61.63;25.30;;;;;;;;;;5045611;28;20485;-69
2023/02/05 04:53:53;;;;;;;71.30;26.73;;;;;;;;;;5029240;28;20198;-68
2023/02/05 04:56:19;;;;;;;62.30;26.63;;;;;;;;;;5038643;28;20299;-68
2023/02/05 04:58:44;;;;;;;67.63;27.33;;;;;;;;;;5033583;28;20501;-68
2023/02/05 05:01:12;;;;;;;72.75;26.67;;;;;;;;;;5023071;28;20682;-68
2023/02/05 05:03:38;;;;;;;71.73;28.23;;;;;;;;;;5022676;28;20211;-68
2023/02/05 05:06:04;;;;;;;71.07;27.38;;;;;;;;;;5019261;28;20564;-69
2023/02/05 05:08:29;;;;;;;72.28;28.13;;;;;;;;;;5031178;28;20194;-68
2023/02/05 05:10:55;;;;;;;66.63;27.75;;;;;;;;;;5029598;28;20629;-68
2023/02/05 05:13:20;;;;;;;76.13;29.65;;;;;;;;;;5030707;28;20272;-68
2023/02/05 05:15:52;;;;;;;82.63;28.30;;;;;;;;;;5031263;28;20194;-68
2023/02/05 05:18:18;;;;;;;74.75;28.77;;;;;;;;;;5031571;28;20228;-68
2023/02/05 05:20:43;;;;;;;72.78;29.40;;;;;;;;;;5029183;28;20622;-68
2023/02/05 05:23:08;;;;;;;78.50;30.00;;;;;;;;;;5031014;28;20217;-68
2023/02/05 05:25:40;;;;;;;73.90;29.40;;;;;;;;;;5028434;28;20187;-68
2023/02/05 05:28:05;;;;;;;69.00;29.65;;;;;;;;;;5027679;28;20563;-68
2023/02/05 05:30:31;;;;;;;78.50;29.83;;;;;;;;;;5017556;28;20194;-68
2023/02/05 05:32:56;;;;;;;75.57;31.02;;;;;;;;;;5040566;28;20299;-68
2023/02/05 05:35:21;;;;;;;72.90;31.55;;;;;;;;;;5027882;28;20495;-68
2023/02/05 05:37:47;;;;;;;70.53;30.40;;;;;;;;;;5029642;28;20206;-68
2023/02/05 05:45:40;;;;;;;78.78;29.50;;;;;;;;;;5029280;28;20186;-68
2023/02/05 05:48:07;;;;;;;73.63;31.20;;;;;;;;;;5028929;28;20201;-68
2023/02/05 05:50:33;;;;;;;71.32;31.10;;;;;;;;;;5026044;28;20224;-68
2023/02/05 05:52:58;;;;;;;66.75;27.90;;;;;;;;;;5025628;28;20193;-68
2023/02/05 05:55:23;;;;;;;63.95;27.50;;;;;;;;;;5029329;28;20204;-68
2023/02/05 05:57:49;;;;;;;63.50;28.35;;;;;;;;;;5031618;28;20263;-68
2023/02/05 06:00:14;;;;;;;62.25;26.77;;;;;;;;;;5043526;28;20221;-69
2023/02/05 06:02:41;;;;;;;58.88;25.30;;;;;;;;;;5025152;28;20928;-68
2023/02/05 06:05:06;;;;;;;52.85;24.55;;;;;;;;;;5028063;28;20645;-68
2023/02/05 06:07:31;;;;;;;57.90;24.40;;;;;;;;;;5026667;28;20186;-69
2023/02/05 06:09:57;;;;;;;57.22;25.08;;;;;;;;;;5038320;28;20203;-68
2023/02/05 06:12:22;;;;;;;55.70;24.25;;;;;;;;;;5031494;28;20614;-68
2023/02/05 06:14:47;;;;;;;48.95;23.25;;;;;;;;;;5027441;28;20277;-68
2023/02/05 06:17:13;;;;;;;49.70;22.75;;;;;;;;;;5019185;28;20654;-67
2023/02/05 06:19:38;;;;;;;49.60;22.07;;;;;;;;;;5021762;28;20284;-67
2023/02/05 06:22:04;;;;;;;50.85;21.25;;;;;;;;;;5024050;28;20303;-68
2023/02/05 06:24:29;;;;;;;46.13;21.52;;;;;;;;;;5031353;28;20645;-67
2023/02/05 06:26:54;;;;;;;49.60;20.40;;;;;;;;;;5031689;28;20317;-68
2023/02/05 06:29:20;;;;;;;39.78;19.25;;;;;;;;;;5029015;28;20538;-68
2023/02/05 06:31:45;;;;;;;40.95;19.40;;;;;;;;;;5026529;28;20186;-69
2023/02/05 06:34:10;;;;;;;41.53;19.60;;;;;;;;;;5027614;28;20245;-68
2023/02/05 06:36:36;;;;;;;40.35;18.45;;;;;;;;;;5024879;28;20202;-75
2023/02/05 06:39:01;;;;;;;37.00;18.55;;;;;;;;;;5034736;28;20244;-75
2023/02/05 06:41:27;;;;;;;35.58;18.55;;;;;;;;;;5023491;28;20784;-73
2023/02/05 06:43:52;;;;;;;37.70;18.87;;;;;;;;;;5037914;28;20287;-70
2023/02/05 06:46:17;;;;;;;36.93;17.33;;;;;;;;;;5043333;28;20474;-71
2023/02/05 06:48:43;;;;;;;36.27;17.87;;;;;;;;;;5043016;28;20198;-70
2023/02/05 06:51:08;;;;;;;32.37;14.90;;;;;;;;;;5039742;28;20221;-71
2023/02/05 06:53:33;;;;;;;26.73;12.07;;;;;;;;;;5032487;28;20703;-76
2023/02/05 06:55:59;;;;;;;18.33;9.10;;;;;;;;;;5022115;28;20195;-72
2023/02/05 06:58:24;;;;;;;18.10;8.43;;;;;;;;;;5036343;28;20272;-70
2023/02/05 07:00:50;;;;;;;13.47;6.90;;;;;;;;;;5032751;28;20301;-78
2023/02/05 07:03:15;;;;;;;11.43;5.60;;;;;;;;;;5033112;28;20214;-74
2023/02/05 07:05:40;;;;;;;11.10;4.03;;;;;;;;;;5035240;28;20654;-76
2023/02/05 07:08:06;;;;;;;10.07;4.10;;;;;;;;;;5038640;28;20231;-71
2023/02/05 07:10:31;;;;;;;7.67;2.73;;;;;;;;;;5034649;28;20696;-71
2023/02/05 07:12:57;;;;;;;7.10;2.27;;;;;;;;;;5042230;28;20208;-72
2023/02/05 07:15:22;;;;;;;9.53;2.77;;;;;;;;;;5041925;28;20254;-71
2023/02/05 07:17:49;;;;;;;8.67;2.13;;;;;;;;;;5031883;28;20275;-71
2023/02/05 07:20:15;;;;;;;4.47;1.07;;;;;;;;;;5031450;28;20209;-74
2023/02/05 07:22:41;;;;;;;6.53;1.17;;;;;;;;;;5035676;28;20232;-74
2023/02/05 07:25:06;;;;;;;12.23;2.23;;;;;;;;;;5038978;28;20197;-71
2023/02/05 07:27:32;;;;;;;6.60;0.93;;;;;;;;;;5042685;28;20696;-74
2023/02/05 07:29:58;;;;;;;9.97;0.93;;;;;;;;;;5039127;28;20680;-71
2023/02/05 07:32:23;;;;;;;7.87;1.20;;;;;;;;;;5026941;28;20666;-74
2023/02/05 07:34:49;;;;;;;8.43;1.20;;;;;;;;;;5025226;28;20192;-70
2023/02/05 07:37:14;;;;;;;7.60;1.03;;;;;;;;;;5029568;28;20189;-72
2023/02/05 07:39:39;;;;;;;5.23;0.97;;;;;;;;;;5029605;28;20198;-69
2023/02/05 07:42:05;;;;;;;6.07;0.87;;;;;;;;;;5032939;28;20830;-69
2023/02/05 07:44:30;;;;;;;9.00;0.90;;;;;;;;;;5042005;28;20554;-70
2023/02/05 07:46:56;;;;;;;10.17;0.73;;;;;;;;;;5033883;28;20641;-69
2023/02/05 07:49:22;;;;;;;8.57;0.97;;;;;;;;;;5046253;28;20231;-71
2023/02/05 07:51:47;;;;;;;7.70;0.90;;;;;;;;;;5030145;28;20882;-70
2023/02/05 07:54:14;;;;;;;6.63;1.50;;;;;;;;;;5027466;28;20268;-69
2023/02/05 07:56:40;;;;;;;8.20;1.30;;;;;;;;;;5030584;28;20221;-70
2023/02/05 07:59:05;;;;;;;6.27;1.43;;;;;;;;;;5038208;28;20764;-69
2023/02/05 08:01:31;;;;;;;10.33;1.20;;;;;;;;;;5035973;28;20212;-69
2023/02/05 08:03:57;;;;;;;12.57;1.00;;;;;;;;;;5029227;28;20301;-69
2023/02/05 08:06:22;;;;;;;14.87;1.30;;;;;;;;;;5047683;28;20272;-70
2023/02/05 08:08:47;;;;;;;6.10;0.80;;;;;;;;;;5037029;28;20283;-71
2023/02/05 08:11:15;;;;;;;14.83;1.53;;;;;;;;;;5038108;28;20206;-69
2023/02/05 08:13:41;;;;;;;9.33;1.07;;;;;;;;;;5034170;28;20186;-69
2023/02/05 08:16:07;;;;;;;9.17;1.20;;;;;;;;;;5028148;28;20285;-71
2023/02/05 08:18:32;;;;;;;10.27;1.13;;;;;;;;;;5032520;28;20224;-69
2023/02/05 08:20:58;;;;;;;14.37;1.20;;;;;;;;;;5042743;28;20227;-69
2023/02/05 08:23:23;;;;;;;7.07;0.93;;;;;;;;;;5026622;28;20218;-69
2023/02/05 08:25:53;;;;;;;12.17;1.47;;;;;;;;;;5036630;28;20280;-69
2023/02/05 08:28:19;;;;;;;8.27;1.13;;;;;;;;;;5021377;28;20582;-70
2023/02/05 08:30:44;;;;;;;7.77;1.30;;;;;;;;;;5033755;28;20230;-69
2023/02/05 08:33:09;;;;;;;8.47;1.23;;;;;;;;;;5027827;28;20612;-70
2023/02/05 08:35:36;;;;;;;9.50;1.07;;;;;;;;;;5029027;28;20218;-69
2023/02/05 08:38:01;;;;;;;9.33;1.20;;;;;;;;;;5018072;28;20561;-70
2023/02/05 08:40:27;;;;;;;10.40;1.60;;;;;;;;;;5026650;28;20197;-69
2023/02/05 08:42:55;;;;;;;8.87;1.10;;;;;;;;;;5027967;28;20206;-70
2023/02/05 08:45:21;;;;;;;9.43;1.33;;;;;;;;;;5035798;28;20187;-70
2023/02/05 08:47:47;;;;;;;13.20;1.77;;;;;;;;;;5041156;28;20298;-69
2023/02/05 08:50:12;;;;;;;12.87;1.93;;;;;;;;;;5036755;28;20545;-69
2023/02/05 08:52:38;;;;;;;7.97;1.43;;;;;;;;;;5025752;28;20194;-70
2023/02/05 08:55:03;;;;;;;14.40;2.30;;;;;;;;;;5018042;28;20195;-70
2023/02/05 08:57:29;;;;;;;17.33;2.20;;;;;;;;;;5027945;28;20194;-69
2023/02/05 08:59:55;;;;;;;17.50;2.10;;;;;;;;;;5034850;28;20213;-70
2023/02/05 09:02:20;;;;;;;16.83;1.77;;;;;;;;;;5024612;28;20214;-70
2023/02/05 09:04:46;;;;;;;12.00;1.80;;;;;;;;;;5016399;28;20551;-76
2023/02/05 09:07:11;;;;;;;9.70;1.60;;;;;;;;;;5009851;28;20187;-76
2023/02/05 09:09:37;;;;;;;14.07;2.07;;;;;;;;;;5024028;28;20307;-76
2023/02/05 09:12:03;;;;;;;10.00;1.43;;;;;;;;;;5043047;28;20200;-73
2023/02/05 09:14:34;;;;;;;17.10;2.13;;;;;;;;;;5041668;28;20194;-74
2023/02/05 09:17:05;;;;;;;15.53;1.63;;;;;;;;;;5027114;28;20272;-74
2023/02/05 09:19:38;;;;;;;17.63;2.15;;;;;;;;;;5045311;28;20217;-73
2023/02/05 09:22:04;;;;;;;13.07;1.90;;;;;;;;;;5043389;28;20486;-72
2023/02/05 09:24:29;;;;;;;13.30;1.50;;;;;;;;;;5035397;28;20719;-72
2023/02/05 09:26:55;;;;;;;12.65;1.60;;;;;;;;;;5041567;28;20201;-75
2023/02/05 09:29:21;;;;;;;10.90;1.27;;;;;;;;;;5040336;28;20664;-75
2023/02/05 09:31:47;;;;;;;10.37;1.40;;;;;;;;;;5024165;28;20285;-73
2023/02/05 09:34:13;;;;;;;16.93;1.60;;;;;;;;;;5043857;28;20229;-72
2023/02/05 09:36:39;;;;;;;15.10;2.57;;;;;;;;;;5029294;28;20248;-75
2023/02/05 09:39:06;;;;;;;14.20;1.47;;;;;;;;;;5033102;28;20221;-75
2023/02/05 09:41:36;;;;;;;19.07;1.93;;;;;;;;;;5031008;28;20205;-76
2023/02/05 09:44:18;;;;;;;10.40;1.57;;;;;;;;;;5034658;28;20226;-75
2023/02/05 09:46:59;;;;;;;11.50;1.37;;;;;;;;;;5036913;28;20184;-75
2023/02/05 09:49:33;;;;;;;11.97;1.53;;;;;;;;;;5043272;28;20267;-73
2023/02/05 09:52:03;;;;;;;9.50;1.17;;;;;;;;;;5028989;28;20193;-73
2023/02/05 09:54:34;;;;;;;11.27;1.70;;;;;;;;;;5038366;28;20224;-72
2023/02/05 09:57:06;;;;;;;10.00;1.37;;;;;;;;;;5037133;28;20284;-73
2023/02/05 09:59:33;;;;;;;4.63;1.20;;;;;;;;;;5034869;28;20261;-79
2023/02/05 10:02:02;;;;;;;16.13;2.53;;;;;;;;;;5035066;28;20249;-74
2023/02/05 10:04:28;;;;;;;8.97;1.30;;;;;;;;;;5039603;28;20284;-73
2023/02/05 10:07:03;;;;;;;12.40;2.00;;;;;;;;;;5032580;28;20190;-74
2023/02/05 10:09:48;;;;;;;12.27;1.53;;;;;;;;;;5025969;28;20224;-75
2023/02/05 10:12:35;;;;;;;22.10;2.40;;;;;;;;;;5023014;28;20194;-73
2023/02/05 10:15:20;;;;;;;17.67;1.90;;;;;;;;;;5026281;28;20374;-73
2023/02/05 10:17:57;;;;;;;12.07;1.80;;;;;;;;;;5017996;28;20662;-73
2023/02/05 10:21:06;;;;;;;14.10;1.77;;;;;;;;;;5017471;28;20202;-74
2023/02/05 10:23:47;;;;;;;12.43;1.43;;;;;;;;;;5030020;28;20779;-77
2023/02/05 10:26:14;;;;;;;8.90;1.33;;;;;;;;;;5032520;28;20186;-73
2023/02/05 10:28:48;;;;;;;12.20;1.40;;;;;;;;;;5020272;28;20555;-71
2023/02/05 10:31:41;;;;;;;11.57;1.33;;;;;;;;;;5028538;28;20189;-73
2023/02/05 10:34:15;;;;;;;15.43;1.50;;;;;;;;;;5019343;28;20240;-72
2023/02/05 10:36:42;;;;;;;5.50;1.30;;;;;;;;;;5031616;28;20181;-72
2023/02/05 10:39:14;;;;;;;11.70;1.67;;;;;;;;;;5022521;28;20248;-72
2023/02/05 10:42:03;;;;;;;9.13;1.60;;;;;;;;;;5035196;28;20217;-71
2023/02/05 10:44:43;;;;;;;7.73;0.83;;;;;;;;;;5027327;28;20277;-70
2023/02/05 10:47:32;;;;;;;5.83;1.00;;;;;;;;;;5024360;28;20203;-70
2023/02/05 10:50:21;;;;;;;8.17;1.07;;;;;;;;;;5028875;28;20186;-71
2023/02/05 10:52:47;;;;;;;10.80;0.93;;;;;;;;;;5009529;28;20198;-72
2023/02/05 10:55:13;;;;;;;4.93;0.63;;;;;;;;;;5032849;28;20573;-71
2023/02/05 10:57:38;;;;;;;8.17;1.17;;;;;;;;;;5038776;28;20241;-72
2023/02/05 11:00:17;;;;;;;3.33;0.47;;;;;;;;;;5028402;28;20220;-73
2023/02/05 11:02:47;;;;;;;7.47;0.77;;;;;;;;;;5037836;28;20214;-72
2023/02/05 11:05:20;;;;;;;10.70;0.93;;;;;;;;;;5015211;28;20181;-72
2023/02/05 11:07:47;;;;;;;7.55;1.00;;;;;;;;;;5030791;28;20332;-72
2023/02/05 11:10:23;;;;;;;7.20;1.67;;;;;;;;;;5027956;28;20557;-71
2023/02/05 11:12:55;;;;;;;15.10;1.15;;;;;;;;;;5029483;28;20181;-70
2023/02/05 11:15:26;;;;;;;9.40;1.50;;;;;;;;;;5031150;28;20225;-72
2023/02/05 11:18:05;;;;;;;11.18;1.83;;;;;;;;;;5018256;28;20183;-72
2023/02/05 11:20:38;;;;;;;11.40;1.60;;;;;;;;;;5020507;28;20194;-73
2023/02/05 11:23:14;;;;;;;11.53;1.00;;;;;;;;;;5028046;28;20289;-71
2023/02/05 11:25:52;;;;;;;11.60;1.20;;;;;;;;;;5028716;28;20193;-70
2023/02/05 11:28:20;;;;;;;11.13;1.27;;;;;;;;;;5042089;28;20267;-71
2023/02/05 11:30:45;;;;;;;12.30;1.60;;;;;;;;;;5039074;28;20196;-69
2023/02/05 11:33:20;;;;;;;13.20;1.60;;;;;;;;;;5038900;28;20226;-70
2023/02/05 11:36:01;;;;;;;16.15;1.73;;;;;;;;;;5032322;28;20189;-73
2023/02/05 11:38:41;;;;;;;11.07;1.40;;;;;;;;;;5014889;28;20692;-71
2023/02/05 11:41:08;;;;;;;12.90;1.43;;;;;;;;;;5013464;28;20232;-72
2023/02/05 11:43:37;;;;;;;12.68;2.70;;;;;;;;;;5027190;28;20213;-71
2023/02/05 11:46:06;;;;;;;14.77;3.57;;;;;;;;;;5036533;28;20716;-70
2023/02/05 11:49:00;;;;;;;17.83;2.42;;;;;;;;;;5028871;28;20713;-69
2023/02/05 11:51:35;;;;;;;18.60;2.45;;;;;;;;;;5017644;28;20664;-69
2023/02/05 11:54:03;;;;;;;15.60;2.22;;;;;;;;;;5017058;28;20193;-69
2023/02/05 11:56:29;;;;;;;15.70;3.08;;;;;;;;;;5020264;28;20190;-69
2023/02/05 11:59:03;;;;;;;21.85;2.65;;;;;;;;;;5011859;28;20643;-69
2023/02/05 12:01:34;;;;;;;22.17;3.03;;;;;;;;;;5007764;28;20506;-68
2023/02/05 12:04:02;;;;;;;17.20;1.85;;;;;;;;;;5016287;28;20252;-69
2023/02/05 12:06:34;;;;;;;15.27;2.93;;;;;;;;;;5015981;28;20187;-68
2023/02/05 12:08:59;;;;;;;16.10;1.98;;;;;;;;;;5014228;28;20268;-71
2023/02/05 12:11:31;;;;;;;15.40;2.40;;;;;;;;;;5016630;28;20391;-72
2023/02/05 12:14:13;;;;;;;17.27;2.65;;;;;;;;;;5019241;28;20308;-70
2023/02/05 12:17:17;;;;;;;17.73;2.33;;;;;;;;;;5011455;28;20224;-70
2023/02/05 12:19:48;;;;;;;20.40;2.58;;;;;;;;;;5015398;28;20217;-72
2023/02/05 12:22:31;;;;;;;19.23;2.17;;;;;;;;;;5015129;28;20724;-73
2023/02/05 12:25:20;;;;;;;17.20;2.10;;;;;;;;;;5015680;28;20194;-70
2023/02/05 12:28:17;;;;;;;14.77;2.20;;;;;;;;;;5016517;28;20343;-71
2023/02/05 12:30:59;;;;;;;13.37;2.20;;;;;;;;;;4998087;28;20193;-69
2023/02/05 12:33:40;;;;;;;15.47;2.10;;;;;;;;;;5014594;28;20225;-75
2023/02/05 12:36:41;;;;;;;14.73;2.10;;;;;;;;;;5017451;28;20280;-70
2023/02/05 12:39:26;;;;;;;16.23;1.90;;;;;;;;;;5017761;28;20212;-71
2023/02/05 12:42:15;;;;;;;16.53;2.77;;;;;;;;;;5012039;28;20225;-69
2023/02/05 12:44:55;;;;;;;22.33;2.40;;;;;;;;;;5014897;28;20248;-69
2023/02/05 12:47:45;;;;;;;15.70;2.37;;;;;;;;;;5015289;28;20234;-70
2023/02/05 12:50:30;;;;;;;21.02;2.50;;;;;;;;;;5015515;28;20216;-70
2023/02/05 12:53:06;;;;;;;24.77;2.75;;;;;;;;;;5012647;28;20229;-70
2023/02/05 12:55:46;;;;;;;19.45;2.47;;;;;;;;;;5019713;28;20601;-70
2023/02/05 12:58:14;;;;;;;20.27;2.72;;;;;;;;;;5021321;28;20720;-70
2023/02/05 13:00:47;;;;;;;15.10;2.30;;;;;;;;;;5021558;28;20577;-69
2023/02/05 13:03:27;;;;;;;19.08;2.60;;;;;;;;;;5022158;28;20288;-69
2023/02/05 13:06:01;;;;;;;14.73;1.98;;;;;;;;;;5020471;28;20205;-70
2023/02/05 13:08:54;;;;;;;18.05;2.80;;;;;;;;;;5021072;28;20198;-69
2023/02/05 13:11:27;;;;;;;18.38;2.75;;;;;;;;;;5019524;28;20194;-70
2023/02/05 13:13:59;;;;;;;23.48;2.97;;;;;;;;;;5019468;28;20232;-69
2023/02/05 13:16:33;;;;;;;19.58;2.90;;;;;;;;;;5019865;28;20186;-70
2023/02/05 13:19:38;;;;;;;22.10;2.93;;;;;;;;;;5018126;28;20912;-70
2023/02/05 13:30:49;;;;;;;26.77;3.20;;;;;;;;;;5028104;28;20277;-70
2023/02/05 13:33:15;;;;;;;27.67;3.40;;;;;;;;;;5042074;28;20631;-69
2023/02/05 13:35:53;;;;;;;25.27;4.07;;;;;;;;;;5041124;28;20185;-70
2023/02/05 13:38:39;;;;;;;14.02;2.30;;;;;;;;;;5043694;28;20191;-70
2023/02/05 13:42:00;;;;;;;17.38;2.63;;;;;;;;;;5037066;28;20320;-69
2023/02/05 13:44:34;;;;;;;29.10;2.78;;;;;;;;;;5020279;28;20205;-70
2023/02/05 13:47:08;;;;;;;17.50;2.80;;;;;;;;;;5043238;28;20193;-69
2023/02/05 13:50:06;;;;;;;20.88;3.20;;;;;;;;;;5044080;28;20689;-68
2023/02/05 13:52:57;;;;;;;20.75;2.63;;;;;;;;;;5044117;28;20193;-70
2023/02/05 13:55:26;;;;;;;24.70;3.72;;;;;;;;;;5043020;28;20272;-70
2023/02/05 13:58:06;;;;;;;31.30;3.97;;;;;;;;;;5038314;28;20642;-71
2023/02/05 14:00:34;;;;;;;21.30;3.22;;;;;;;;;;5032327;28;20227;-69
2023/02/05 14:03:05;;;;;;;20.60;2.83;;;;;;;;;;5037037;28;20209;-68
2023/02/05 14:05:34;;;;;;;14.85;2.67;;;;;;;;;;5041333;28;20189;-69
2023/02/05 14:08:02;;;;;;;20.75;4.07;;;;;;;;;;5037988;28;20186;-69
2023/02/05 14:10:43;;;;;;;20.83;2.90;;;;;;;;;;5040388;28;20189;-69
2023/02/05 14:13:10;;;;;;;21.15;3.03;;;;;;;;;;5043805;28;20484;-69
2023/02/05 14:15:41;;;;;;;21.02;2.95;;;;;;;;;;5042996;28;20791;-71
2023/02/05 14:18:10;;;;;;;17.65;2.70;;;;;;;;;;5041475;28;20181;-68
2023/02/05 14:20:39;;;;;;;15.80;2.28;;;;;;;;;;5043918;28;20579;-68
2023/02/05 14:23:45;;;;;;;18.63;3.05;;;;;;;;;;5041011;28;20199;-68
2023/02/05 14:26:11;;;;;;;21.83;3.83;;;;;;;;;;5033529;28;20293;-69
2023/02/05 14:28:44;;;;;;;21.80;2.42;;;;;;;;;;5042017;28;20261;-70
2023/02/05 14:31:49;;;;;;;18.77;3.78;;;;;;;;;;5032775;28;20186;-69
2023/02/05 14:34:31;;;;;;;25.58;3.50;;;;;;;;;;5036895;28;20217;-69
2023/02/05 14:36:56;;;;;;;19.23;3.20;;;;;;;;;;5031638;28;20243;-67
2023/02/05 14:39:34;;;;;;;19.27;2.75;;;;;;;;;;5042303;28;20665;-71
2023/02/05 14:42:04;;;;;;;20.08;2.83;;;;;;;;;;5039567;28;20600;-69
2023/02/05 14:44:37;;;;;;;16.20;2.00;;;;;;;;;;5037073;28;20277;-69
2023/02/05 14:47:22;;;;;;;18.23;2.58;;;;;;;;;;5036344;28;20209;-69
2023/02/05 14:49:49;;;;;;;22.00;2.88;;;;;;;;;;5040318;28;20635;-68
2023/02/05 14:52:23;;;;;;;17.35;2.75;;;;;;;;;;5041562;28;20182;-68
2023/02/05 14:54:58;;;;;;;21.08;2.75;;;;;;;;;;5044908;28;20766;-69
2023/02/05 14:57:25;;;;;;;24.02;3.60;;;;;;;;;;5044982;28;20184;-67
2023/02/05 14:59:55;;;;;;;20.58;3.28;;;;;;;;;;5036798;28;20268;-68
2023/02/05 15:02:54;;;;;;;21.08;3.97;;;;;;;;;;5027447;28;20230;-69